Pagrindinis puslapis
METAR-TAF:

METAR-TAF

Oro uostai :

Florianopolis, Santa Katarina, Brazilija

platuma: 27-40S, ilguma: 048-33W, Aukštis: 5 m

Dabartinis oras

Ataskaita buvo paskelbta 7 minutes, ne 02:00 UTC
Vėjas 6 kt iš Pietų
Temperatūra 14°C
Drėgmė 63%
Slėgis 1023 hPa
Matomumas 10 km arba daugiau
nėra debesų žemiau 1500 m ir nėra kamuolinių lietaus debesų

METAR: SBFL 170200Z 19006KT CAVOK 14/07 Q1023

Laikas: 23:07 (02:07 UTC)

Prognozė

Ataskaita buvo paskelbta 5 valandos ir 7 minutes, ne 21:00 UTC
Prognozė galioja nuo 17 metu 00 UTC su 17 metu 24 UTC
Vėjas 10 kt iš Pietų
Matomumas 10 km arba daugiau
Išsisklaidę debesys ne aukštis 2500 ft

TAF: SBFL 162100Z 1700/1724 19010KT 9999 SCT025 TN13/1709Z TX17/1718Z RMK PDP

Orai ataskaitas ir orų prognozės (METAR, TAF).

turimą stotys yra geltonos ir raudonos taškus žemėlapyje.

Perkelti pele per norėdami pamatyti stoties vardą.

Tada spustelėkite, norėdami matyti oro stebėjimo ir prognozės.

Norėdami pakeisti žemėlapį: spustelėkite ant žalios mygtukų su juodo kryžiaus žemyn,; žalią mygtuką su brūkšneliu, jei norite nutolinti; arba žalių rodyklių gretimoms žemėlapius.


METAR-TAF: